Time;durP1;ratioP1;P1;durP2;ratioP2;P2;SDS_P1;SDS_P2;PMS_P1;PMS_P2;Temp;Humidity;BMP_temperature;BMP_pressure;BME280_temperature;BME280_humidity;BME280_pressure;Samples;Min_cycle;Max_cycle;Signal;HPM_P1;HPM_P2
2024/01/20 00:02:13;;;;;;;41.07;21.27;;;0.60;99.90;;;;;;5100093;28;20205;-85
2024/01/20 00:04:39;;;;;;;40.00;22.30;;;0.50;99.90;;;;;;5109364;28;20191;-82
2024/01/20 00:07:05;;;;;;;42.27;21.33;;;0.50;99.90;;;;;;5107782;28;20604;-82
2024/01/20 00:09:31;;;;;;;43.57;19.53;;;0.60;99.90;;;;;;5103762;28;20623;-83
2024/01/20 00:11:56;;;;;;;40.57;21.00;;;0.40;99.90;;;;;;5092262;28;20183;-81
2024/01/20 00:14:22;;;;;;;44.40;22.33;;;0.40;99.90;;;;;;5093150;28;20685;-82
2024/01/20 00:16:48;;;;;;;43.00;21.33;;;0.40;99.90;;;;;;5092893;28;20196;-83
2024/01/20 00:19:13;;;;;;;43.37;21.33;;;0.40;99.90;;;;;;5085809;28;20213;-83
2024/01/20 00:21:39;;;;;;;39.73;20.10;;;0.30;99.90;;;;;;5093959;28;20209;-83
2024/01/20 00:24:05;;;;;;;42.03;20.80;;;0.40;99.90;;;;;;5093924;28;20168;-82
2024/01/20 00:26:31;;;;;;;46.27;20.80;;;0.70;99.90;;;;;;5093342;28;20234;-81
2024/01/20 00:28:56;;;;;;;48.03;22.17;;;0.60;99.90;;;;;;5095319;28;20631;-81
2024/01/20 00:31:22;;;;;;;54.40;23.87;;;0.40;99.90;;;;;;5091663;28;20175;-82
2024/01/20 00:33:48;;;;;;;46.07;23.30;;;0.40;99.90;;;;;;5091437;28;20198;-83
2024/01/20 00:36:13;;;;;;;53.53;24.40;;;0.50;99.90;;;;;;5092419;28;20172;-83
2024/01/20 00:38:41;;;;;;;49.77;22.93;;;0.50;99.90;;;;;;5092731;28;20282;-82
2024/01/20 00:41:07;;;;;;;49.10;23.07;;;0.40;99.90;;;;;;5092269;28;20172;-83
2024/01/20 00:43:32;;;;;;;43.73;21.90;;;0.50;99.90;;;;;;5092655;28;20176;-82
2024/01/20 00:46:00;;;;;;;48.47;24.07;;;0.40;99.90;;;;;;5092864;28;20239;-81
2024/01/20 00:48:25;;;;;;;45.77;22.77;;;0.50;99.90;;;;;;5097208;28;20621;-81
2024/01/20 00:50:51;;;;;;;48.37;23.77;;;0.50;99.90;;;;;;5095627;28;20175;-82
2024/01/20 00:53:17;;;;;;;46.57;23.63;;;0.60;99.90;;;;;;5098891;28;20186;-82
2024/01/20 00:55:43;;;;;;;48.20;21.90;;;0.60;99.90;;;;;;5096453;28;20538;-81
2024/01/20 00:58:09;;;;;;;49.27;24.33;;;0.50;99.90;;;;;;5097198;28;20602;-82
2024/01/20 01:00:35;;;;;;;48.83;24.03;;;0.50;99.90;;;;;;5090844;28;20201;-82
2024/01/20 01:03:00;;;;;;;46.40;24.20;;;0.70;99.90;;;;;;5092338;28;20714;-82
2024/01/20 01:05:26;;;;;;;45.00;23.83;;;0.60;99.90;;;;;;5092252;28;20211;-82
2024/01/20 01:07:52;;;;;;;50.50;24.00;;;0.50;99.90;;;;;;5092298;28;20703;-81
2024/01/20 01:10:17;;;;;;;50.80;25.57;;;0.50;99.90;;;;;;5091868;28;20300;-82
2024/01/20 01:12:43;;;;;;;49.03;23.83;;;0.50;99.90;;;;;;5092719;28;20544;-83
2024/01/20 01:15:09;;;;;;;47.80;23.90;;;0.50;99.90;;;;;;5092541;28;20221;-83
2024/01/20 01:17:34;;;;;;;44.60;23.33;;;0.50;99.90;;;;;;5092419;28;20691;-83
2024/01/20 01:20:00;;;;;;;46.50;23.50;;;0.50;99.90;;;;;;5092200;28;20631;-82
2024/01/20 01:22:26;;;;;;;49.27;23.73;;;0.40;99.90;;;;;;5092336;28;20242;-83
2024/01/20 01:24:52;;;;;;;43.20;23.60;;;0.40;99.90;;;;;;5092051;28;20207;-82
2024/01/20 01:27:17;;;;;;;43.23;21.87;;;0.60;99.90;;;;;;5092496;28;20172;-82
2024/01/20 01:29:43;;;;;;;45.10;23.90;;;0.50;99.90;;;;;;5091239;28;20172;-82
2024/01/20 01:32:09;;;;;;;40.53;21.70;;;0.70;99.90;;;;;;5093659;28;20228;-82
2024/01/20 01:34:36;;;;;;;40.60;19.47;;;0.50;99.90;;;;;;5091488;28;20176;-82
2024/01/20 01:37:02;;;;;;;38.80;21.57;;;0.30;99.90;;;;;;5093310;28;20598;-81
2024/01/20 01:39:27;;;;;;;36.53;19.33;;;0.20;99.90;;;;;;5098315;28;20769;-81
2024/01/20 01:41:53;;;;;;;39.10;20.23;;;0.20;99.90;;;;;;5093775;28;20163;-81
2024/01/20 01:44:18;;;;;;;38.43;19.43;;;0.30;99.90;;;;;;5091541;28;20544;-82
2024/01/20 01:46:44;;;;;;;43.83;20.03;;;0.20;99.90;;;;;;5091682;28;20214;-81
2024/01/20 01:49:11;;;;;;;38.97;19.97;;;0.20;99.90;;;;;;5093432;28;20252;-83
2024/01/20 01:51:36;;;;;;;38.63;20.50;;;0.10;99.90;;;;;;5091971;28;20190;-83
2024/01/20 01:54:03;;;;;;;36.07;19.33;;;0.10;99.90;;;;;;5092364;28;20171;-82
2024/01/20 01:56:30;;;;;;;36.97;19.90;;;0.20;99.90;;;;;;5090798;28;20187;-81
2024/01/20 01:58:56;;;;;;;37.37;20.63;;;0.20;99.90;;;;;;5091430;28;20207;-81
2024/01/20 02:01:22;;;;;;;33.40;19.50;;;0.10;99.90;;;;;;5090704;28;20274;-83
2024/01/20 02:03:48;;;;;;;35.97;19.30;;;0.10;99.90;;;;;;5093430;28;20229;-83
2024/01/20 02:06:15;;;;;;;35.83;18.63;;;0.10;99.90;;;;;;5090919;28;20210;-82
2024/01/20 02:08:41;;;;;;;35.60;19.70;;;0.10;99.90;;;;;;5092030;28;20180;-82
2024/01/20 02:11:07;;;;;;;28.50;17.87;;;0.10;99.90;;;;;;5091977;28;20203;-82
2024/01/20 02:13:34;;;;;;;30.40;18.23;;;0.20;99.90;;;;;;5092100;28;20250;-82
2024/01/20 02:16:01;;;;;;;34.67;19.43;;;0.10;99.90;;;;;;5091019;28;20179;-82
2024/01/20 02:18:27;;;;;;;30.70;18.27;;;0.30;99.90;;;;;;5091753;28;20228;-82
2024/01/20 02:20:53;;;;;;;31.57;18.00;;;0.00;99.90;;;;;;5091697;28;20174;-83
2024/01/20 02:23:19;;;;;;;33.10;17.93;;;0.00;99.90;;;;;;5090913;28;20171;-82
2024/01/20 02:25:46;;;;;;;34.67;19.60;;;0.10;99.90;;;;;;5091771;28;20203;-81
2024/01/20 02:28:12;;;;;;;35.30;19.37;;;0.00;99.90;;;;;;5091752;28;20167;-81
2024/01/20 02:30:37;;;;;;;31.10;20.17;;;0.00;99.90;;;;;;5092970;28;20175;-81
2024/01/20 02:33:03;;;;;;;33.10;18.40;;;0.00;99.90;;;;;;5091701;28;20163;-83
2024/01/20 02:35:29;;;;;;;39.53;20.00;;;0.20;99.90;;;;;;5090453;28;20172;-81
2024/01/20 02:37:55;;;;;;;37.73;20.00;;;0.40;99.90;;;;;;5091829;28;20182;-82
2024/01/20 02:40:21;;;;;;;33.87;20.47;;;0.30;99.90;;;;;;5092469;28;20528;-82
2024/01/20 02:42:47;;;;;;;34.37;20.53;;;0.20;99.90;;;;;;5091172;28;20178;-83
2024/01/20 02:45:13;;;;;;;34.47;20.10;;;0.30;99.90;;;;;;5090252;28;20195;-82
2024/01/20 02:47:38;;;;;;;34.13;20.33;;;0.50;99.90;;;;;;5091843;28;20207;-82
2024/01/20 02:50:05;;;;;;;35.40;19.77;;;0.50;99.90;;;;;;5092548;28;20571;-82
2024/01/20 02:52:31;;;;;;;32.43;19.97;;;0.50;99.90;;;;;;5091309;28;20258;-82
2024/01/20 02:54:57;;;;;;;34.27;20.53;;;0.50;99.90;;;;;;5092295;28;20296;-81
2024/01/20 02:57:22;;;;;;;35.57;20.33;;;0.40;99.90;;;;;;5095030;28;20197;-81
2024/01/20 02:59:48;;;;;;;34.73;20.03;;;0.30;99.90;;;;;;5094960;28;20171;-83
2024/01/20 03:02:13;;;;;;;35.23;20.57;;;0.30;99.90;;;;;;5094422;28;20186;-81
2024/01/20 03:04:39;;;;;;;30.53;20.50;;;0.30;99.90;;;;;;5094073;28;20182;-81
2024/01/20 03:07:05;;;;;;;33.30;19.33;;;0.30;99.90;;;;;;5094315;28;20184;-82
2024/01/20 03:09:30;;;;;;;27.90;18.17;;;0.30;99.90;;;;;;5094572;28;20241;-82
2024/01/20 03:11:56;;;;;;;31.43;18.90;;;0.20;99.90;;;;;;5096433;28;20178;-82
2024/01/20 03:14:22;;;;;;;35.70;19.33;;;0.20;99.90;;;;;;5093720;28;20199;-81
2024/01/20 03:16:47;;;;;;;33.50;19.33;;;0.20;99.90;;;;;;5094102;28;20206;-81
2024/01/20 03:19:13;;;;;;;30.97;18.97;;;0.10;99.90;;;;;;5095894;28;20168;-81
2024/01/20 03:21:38;;;;;;;34.90;19.60;;;0.20;99.90;;;;;;5094081;28;20201;-81
2024/01/20 03:24:04;;;;;;;37.00;20.07;;;0.10;99.90;;;;;;5094550;28;20171;-82
2024/01/20 03:26:30;;;;;;;34.43;20.03;;;0.10;99.90;;;;;;5094492;28;20261;-82
2024/01/20 03:28:56;;;;;;;34.17;19.30;;;0.10;99.90;;;;;;5093290;28;20175;-81
2024/01/20 03:31:21;;;;;;;32.00;18.87;;;0.00;99.90;;;;;;5095262;28;20188;-81
2024/01/20 03:33:47;;;;;;;29.50;18.00;;;-0.10;99.90;;;;;;5094691;28;20654;-81
2024/01/20 03:36:13;;;;;;;33.30;18.07;;;-0.10;99.90;;;;;;5096404;28;20247;-81
2024/01/20 03:38:38;;;;;;;31.40;17.47;;;-0.10;99.90;;;;;;5097486;28;20570;-82
2024/01/20 03:41:04;;;;;;;28.73;17.37;;;-0.10;99.90;;;;;;5098248;28;20186;-81
2024/01/20 03:43:29;;;;;;;32.43;16.93;;;-0.10;99.90;;;;;;5094902;28;20181;-81
2024/01/20 03:45:56;;;;;;;29.27;19.03;;;-0.10;99.90;;;;;;5094845;28;20684;-83
2024/01/20 03:48:22;;;;;;;28.80;18.90;;;0.00;99.90;;;;;;5093191;28;20262;-81
2024/01/20 03:50:48;;;;;;;29.27;18.23;;;0.00;99.90;;;;;;5094796;28;20593;-83
2024/01/20 03:53:14;;;;;;;34.23;18.73;;;0.00;99.90;;;;;;5095523;28;20206;-81
2024/01/20 03:55:40;;;;;;;30.77;20.33;;;-0.10;99.90;;;;;;5094940;28;20225;-83
2024/01/20 03:58:05;;;;;;;31.47;18.27;;;0.00;99.90;;;;;;5092856;28;20596;-82
2024/01/20 04:00:31;;;;;;;31.73;18.90;;;0.10;99.90;;;;;;5093968;28;20211;-82
2024/01/20 04:02:57;;;;;;;30.50;19.17;;;0.00;99.90;;;;;;5092119;28;20228;-81
2024/01/20 04:05:23;;;;;;;31.03;17.47;;;0.10;99.90;;;;;;5092180;28;20214;-82
2024/01/20 04:07:48;;;;;;;32.07;18.80;;;0.00;99.90;;;;;;5093203;28;20183;-82
2024/01/20 04:10:14;;;;;;;29.20;17.07;;;0.00;99.90;;;;;;5093910;28;20203;-81
2024/01/20 04:12:41;;;;;;;31.43;18.43;;;0.10;99.90;;;;;;5093093;28;20228;-81
2024/01/20 04:15:07;;;;;;;31.00;17.37;;;0.10;99.90;;;;;;5094829;28;20179;-81
2024/01/20 04:17:33;;;;;;;32.10;17.93;;;0.00;99.90;;;;;;5093815;28;20195;-82
2024/01/20 04:19:58;;;;;;;33.20;18.57;;;0.00;99.90;;;;;;5093876;28;20193;-81
2024/01/20 04:22:24;;;;;;;33.23;19.87;;;-0.10;99.90;;;;;;5093595;28;20711;-83
2024/01/20 04:24:50;;;;;;;36.13;18.90;;;-0.10;99.90;;;;;;5092886;28;20221;-81
2024/01/20 04:27:16;;;;;;;29.67;17.17;;;-0.10;99.90;;;;;;5093859;28;20189;-81
2024/01/20 04:29:41;;;;;;;30.73;17.90;;;0.00;99.90;;;;;;5092931;28;20302;-81
2024/01/20 04:32:07;;;;;;;34.77;19.57;;;0.00;99.90;;;;;;5094952;28;20635;-82
2024/01/20 04:34:32;;;;;;;31.87;19.70;;;0.10;99.90;;;;;;5093040;28;20198;-81
2024/01/20 04:36:58;;;;;;;31.20;19.00;;;0.10;99.90;;;;;;5093695;28;20221;-81
2024/01/20 04:39:24;;;;;;;35.33;18.37;;;0.00;99.90;;;;;;5092950;28;20217;-82
2024/01/20 04:41:49;;;;;;;31.93;18.97;;;0.00;99.90;;;;;;5093746;28;20175;-81
2024/01/20 04:44:15;;;;;;;29.07;16.53;;;0.10;99.90;;;;;;5093637;28;20553;-81
2024/01/20 04:46:40;;;;;;;38.87;21.13;;;-0.10;99.90;;;;;;5093117;28;20219;-84
2024/01/20 04:49:07;;;;;;;35.67;20.23;;;-0.10;99.90;;;;;;5093163;28;20581;-82
2024/01/20 04:51:32;;;;;;;38.93;21.43;;;0.00;99.90;;;;;;5093255;28;20175;-82
2024/01/20 04:53:58;;;;;;;36.93;22.23;;;-0.10;99.90;;;;;;5092071;28;20654;-80
2024/01/20 04:56:23;;;;;;;39.30;22.10;;;0.10;99.90;;;;;;5093258;28;20202;-81
2024/01/20 04:58:50;;;;;;;44.37;23.63;;;0.10;99.90;;;;;;5092966;28;20183;-86
2024/01/20 05:01:15;;;;;;;49.30;25.00;;;0.10;99.90;;;;;;5092249;28;20174;-81
2024/01/20 05:03:41;;;;;;;38.90;23.67;;;0.00;99.90;;;;;;5092807;28;20184;-84
2024/01/20 05:06:07;;;;;;;42.27;24.60;;;-0.10;99.90;;;;;;5091793;28;20298;-82
2024/01/20 05:08:32;;;;;;;37.97;22.83;;;-0.10;99.90;;;;;;5092804;28;20183;-82
2024/01/20 05:10:58;;;;;;;41.70;22.07;;;-0.10;99.90;;;;;;5094135;28;20164;-82
2024/01/20 05:13:25;;;;;;;41.97;22.27;;;-0.20;99.90;;;;;;5091976;28;20179;-82
2024/01/20 05:15:53;;;;;;;36.67;21.80;;;-0.30;99.90;;;;;;5091508;28;20700;-81
2024/01/20 05:18:19;;;;;;;40.97;23.03;;;-0.30;99.90;;;;;;5091078;28;20199;-81
2024/01/20 05:20:44;;;;;;;41.00;21.83;;;-0.10;99.90;;;;;;5092993;28;20678;-81
2024/01/20 05:23:10;;;;;;;42.13;24.33;;;-0.30;99.90;;;;;;5093053;28;20180;-82
2024/01/20 05:25:35;;;;;;;39.70;21.90;;;-0.20;99.90;;;;;;5093901;28;20235;-82
2024/01/20 05:28:01;;;;;;;37.73;21.43;;;-0.10;99.90;;;;;;5092670;28;20175;-83
2024/01/20 05:30:27;;;;;;;35.60;21.07;;;-0.20;99.90;;;;;;5091322;28;20176;-82
2024/01/20 05:32:52;;;;;;;37.17;21.20;;;-0.20;99.90;;;;;;5091347;28;20258;-82
2024/01/20 05:35:18;;;;;;;37.93;22.80;;;0.00;99.90;;;;;;5092167;28;20203;-84
2024/01/20 05:37:44;;;;;;;39.57;22.33;;;-0.10;99.90;;;;;;5091481;28;20631;-86
2024/01/20 05:40:10;;;;;;;41.27;23.53;;;-0.20;99.90;;;;;;5090370;28;20171;-82
2024/01/20 05:42:36;;;;;;;40.97;22.87;;;-0.20;99.90;;;;;;5091430;28;20164;-82
2024/01/20 05:45:02;;;;;;;39.93;23.30;;;-0.30;99.90;;;;;;5091469;28;20207;-82
2024/01/20 05:47:28;;;;;;;39.40;23.57;;;-0.30;99.90;;;;;;5091897;28;20202;-81
2024/01/20 05:49:53;;;;;;;39.60;25.00;;;-0.10;99.90;;;;;;5092646;28;20172;-81
2024/01/20 05:52:19;;;;;;;43.90;25.47;;;-0.20;99.90;;;;;;5090826;28;20255;-82
2024/01/20 05:54:44;;;;;;;43.60;24.40;;;-0.30;99.90;;;;;;5091812;28;20176;-83
2024/01/20 05:57:10;;;;;;;39.40;23.27;;;-0.20;99.90;;;;;;5091737;28;20244;-81
2024/01/20 05:59:36;;;;;;;37.63;24.13;;;-0.10;99.90;;;;;;5091967;28;20654;-81
2024/01/20 06:02:02;;;;;;;38.67;23.43;;;-0.20;99.90;;;;;;5090981;28;20233;-82
2024/01/20 06:04:27;;;;;;;43.03;23.10;;;-0.30;99.90;;;;;;5092365;28;20167;-83
2024/01/20 06:06:53;;;;;;;40.60;24.97;;;-0.30;99.90;;;;;;5091366;28;20689;-82
2024/01/20 06:09:19;;;;;;;42.83;23.70;;;-0.30;99.90;;;;;;5092360;28;20178;-82
2024/01/20 06:11:44;;;;;;;43.00;25.33;;;-0.40;99.90;;;;;;5091348;28;20187;-82
2024/01/20 06:14:10;;;;;;;40.57;23.93;;;-0.20;99.90;;;;;;5092247;28;20175;-82
2024/01/20 06:16:38;;;;;;;41.83;24.20;;;-0.20;99.90;;;;;;5092907;28;20228;-88
2024/01/20 06:19:06;;;;;;;40.33;23.93;;;-0.10;99.90;;;;;;5090820;28;20175;-82
2024/01/20 06:21:32;;;;;;;45.30;25.23;;;-0.10;99.90;;;;;;5091319;28;20188;-81
2024/01/20 06:23:57;;;;;;;39.07;22.97;;;-0.20;99.90;;;;;;5090807;28;20176;-82
2024/01/20 06:26:23;;;;;;;39.60;23.60;;;0.00;99.90;;;;;;5091329;28;20211;-81
2024/01/20 06:28:49;;;;;;;35.63;22.63;;;0.00;99.90;;;;;;5091815;28;20176;-82
2024/01/20 06:31:25;;;;;;;39.77;23.17;;;-0.10;99.90;;;;;;5090438;28;20179;-81
2024/01/20 06:33:55;;;;;;;41.93;21.70;;;-0.10;99.90;;;;;;5090160;28;20168;-81
2024/01/20 06:36:21;;;;;;;33.70;19.97;;;0.10;99.90;;;;;;5092616;28;20263;-82
2024/01/20 06:38:48;;;;;;;35.80;20.30;;;-0.10;99.90;;;;;;5091509;28;20530;-82
2024/01/20 06:41:15;;;;;;;38.27;21.93;;;-0.30;99.90;;;;;;5091291;28;20183;-81
2024/01/20 06:43:41;;;;;;;43.73;20.97;;;-0.20;99.90;;;;;;5091100;28;20274;-82
2024/01/20 06:46:07;;;;;;;39.60;22.23;;;-0.30;99.90;;;;;;5091238;28;20303;-82
2024/01/20 06:48:34;;;;;;;34.83;20.97;;;-0.30;99.90;;;;;;5090771;28;20547;-81
2024/01/20 06:51:03;;;;;;;36.03;20.97;;;-0.30;99.90;;;;;;5091883;28;20180;-82
2024/01/20 06:53:30;;;;;;;32.77;20.20;;;-0.20;99.90;;;;;;5091224;28;20643;-82
2024/01/20 06:55:56;;;;;;;37.57;21.67;;;-0.10;99.90;;;;;;5090024;28;20172;-82
2024/01/20 06:58:22;;;;;;;36.83;21.60;;;-0.10;99.90;;;;;;5090150;28;20198;-82
2024/01/20 07:00:48;;;;;;;31.23;20.37;;;-0.20;99.90;;;;;;5091149;28;20295;-81
2024/01/20 07:03:17;;;;;;;33.57;19.60;;;-0.10;99.90;;;;;;5090896;28;20183;-82
2024/01/20 07:05:43;;;;;;;30.93;18.67;;;-0.10;99.90;;;;;;5090459;28;20203;-81
2024/01/20 07:08:11;;;;;;;30.27;18.93;;;-0.20;99.90;;;;;;5090976;28;20636;-82
2024/01/20 07:10:37;;;;;;;29.77;18.57;;;-0.20;99.90;;;;;;5091636;28;20496;-81
2024/01/20 07:13:03;;;;;;;30.37;18.27;;;-0.30;99.90;;;;;;5091567;28;20171;-83
2024/01/20 07:15:29;;;;;;;28.73;17.97;;;-0.30;99.90;;;;;;5090878;28;20187;-81
2024/01/20 07:17:58;;;;;;;27.67;16.80;;;-0.30;99.90;;;;;;5091706;28;20290;-82
2024/01/20 07:20:25;;;;;;;29.57;17.13;;;-0.30;99.90;;;;;;5092965;28;20167;-85
2024/01/20 07:22:50;;;;;;;24.07;16.20;;;-0.30;99.90;;;;;;5090443;28;20180;-81
2024/01/20 07:25:17;;;;;;;30.77;17.90;;;-0.30;99.90;;;;;;5092512;28;20282;-82
2024/01/20 07:27:43;;;;;;;27.83;16.30;;;-0.30;99.90;;;;;;5091703;28;20168;-82
2024/01/20 07:30:10;;;;;;;27.77;17.37;;;-0.20;99.90;;;;;;5099821;28;20172;-82
2024/01/20 07:32:37;;;;;;;31.30;17.47;;;-0.10;99.90;;;;;;5093206;28;20232;-83
2024/01/20 07:35:04;;;;;;;28.57;16.80;;;-0.20;99.90;;;;;;5093021;28;20174;-84
2024/01/20 07:37:30;;;;;;;25.37;16.73;;;-0.10;99.90;;;;;;5095012;28;20200;-83
2024/01/20 07:39:55;;;;;;;24.93;15.53;;;-0.20;99.90;;;;;;5092971;28;20241;-83
2024/01/20 07:42:21;;;;;;;27.60;16.07;;;-0.20;99.90;;;;;;5094343;28;20201;-83
2024/01/20 07:44:46;;;;;;;24.77;15.70;;;-0.30;99.90;;;;;;5095386;28;20156;-83
2024/01/20 07:47:14;;;;;;;25.50;15.17;;;-0.20;99.90;;;;;;5094596;28;20176;-83
2024/01/20 07:49:39;;;;;;;25.77;15.30;;;-0.20;99.90;;;;;;5093771;28;20647;-82
2024/01/20 07:52:07;;;;;;;28.37;16.13;;;-0.20;99.90;;;;;;5094392;28;20183;-83
2024/01/20 07:54:33;;;;;;;22.83;14.87;;;-0.20;99.90;;;;;;5093845;28;20171;-81
2024/01/20 07:56:59;;;;;;;28.03;15.23;;;-0.30;99.90;;;;;;5096260;28;20186;-82
2024/01/20 07:59:24;;;;;;;24.10;15.10;;;-0.30;99.90;;;;;;5094525;28;20531;-82
2024/01/20 08:01:50;;;;;;;22.27;14.17;;;-0.20;99.90;;;;;;5096282;28;20225;-82
2024/01/20 08:04:17;;;;;;;22.63;14.27;;;-0.30;99.90;;;;;;5094672;28;20193;-82
2024/01/20 08:06:43;;;;;;;18.27;12.87;;;-0.40;99.90;;;;;;5094639;28;20254;-81
2024/01/20 08:09:10;;;;;;;23.10;13.37;;;-0.50;99.90;;;;;;5093898;28;20691;-82
2024/01/20 08:11:35;;;;;;;23.03;14.13;;;-0.50;99.90;;;;;;5093529;28;20231;-82
2024/01/20 08:14:01;;;;;;;23.83;14.73;;;-0.50;99.90;;;;;;5093610;28;20695;-83
2024/01/20 08:16:28;;;;;;;26.93;15.43;;;-0.50;99.90;;;;;;5093229;28;20168;-83
2024/01/20 08:18:55;;;;;;;22.57;14.13;;;-0.40;99.90;;;;;;5093428;28;20176;-86
2024/01/20 08:21:21;;;;;;;27.43;15.67;;;-0.50;99.90;;;;;;5093464;28;20187;-84
2024/01/20 08:23:47;;;;;;;26.17;16.17;;;-0.50;99.90;;;;;;5092477;28;20542;-82
2024/01/20 08:26:13;;;;;;;23.27;14.77;;;-0.50;99.90;;;;;;5092924;28;20290;-82
2024/01/20 08:28:39;;;;;;;25.03;15.60;;;-0.40;99.90;;;;;;5091134;28;20228;-82
2024/01/20 08:31:05;;;;;;;30.37;16.67;;;-0.50;99.90;;;;;;5082485;28;20172;-82
2024/01/20 08:33:31;;;;;;;23.33;14.77;;;-0.50;99.90;;;;;;5081681;28;20175;-82
2024/01/20 08:35:57;;;;;;;23.37;15.10;;;-0.60;99.90;;;;;;5083728;28;20537;-83
2024/01/20 08:38:22;;;;;;;23.43;14.37;;;-0.70;99.90;;;;;;5088264;28;20271;-81
2024/01/20 08:40:48;;;;;;;24.33;14.63;;;-0.70;99.90;;;;;;5091868;28;20175;-82
2024/01/20 08:43:18;;;;;;;22.10;14.47;;;-0.70;99.90;;;;;;5093599;28;20225;-83
2024/01/20 08:45:43;;;;;;;21.73;14.70;;;-0.70;99.90;;;;;;5094201;28;20675;-82
2024/01/20 08:48:09;;;;;;;25.03;14.20;;;-0.60;99.90;;;;;;5094181;28;20193;-85
2024/01/20 08:50:35;;;;;;;27.07;17.13;;;-0.60;99.90;;;;;;5084711;28;20176;-81
2024/01/20 08:53:00;;;;;;;22.10;14.33;;;-0.50;99.90;;;;;;5073611;28;20643;-83
2024/01/20 08:55:26;;;;;;;23.90;15.43;;;-0.70;99.90;;;;;;5092114;28;20220;-83
2024/01/20 08:57:52;;;;;;;28.17;18.17;;;-0.60;99.90;;;;;;5093279;28;20190;-82
2024/01/20 09:00:18;;;;;;;31.47;19.77;;;-0.60;99.90;;;;;;5092841;28;20176;-82
2024/01/20 09:02:44;;;;;;;28.60;17.07;;;-0.70;99.90;;;;;;5091672;28;20189;-83
2024/01/20 09:05:10;;;;;;;23.07;14.57;;;-0.70;99.90;;;;;;5092831;28;20211;-85
2024/01/20 09:07:36;;;;;;;25.70;15.87;;;-0.90;99.90;;;;;;5091913;28;20183;-82
2024/01/20 09:10:05;;;;;;;22.73;15.37;;;-0.90;99.90;;;;;;5092330;28;20225;-85
2024/01/20 09:12:30;;;;;;;26.67;15.47;;;-0.80;99.90;;;;;;5092569;28;20171;-84
2024/01/20 09:14:57;;;;;;;25.70;16.30;;;-0.80;99.90;;;;;;5083800;28;20273;-85
2024/01/20 09:17:22;;;;;;;26.17;16.67;;;-0.60;99.90;;;;;;5087756;28;20191;-85
2024/01/20 09:19:48;;;;;;;25.73;16.60;;;-0.70;99.90;;;;;;5088540;28;20168;-85
2024/01/20 09:22:14;;;;;;;25.67;15.90;;;-0.70;99.90;;;;;;5088017;28;20167;-85
2024/01/20 09:24:39;;;;;;;27.30;17.63;;;-0.50;99.90;;;;;;5085891;28;20171;-84
2024/01/20 09:27:05;;;;;;;25.17;16.87;;;-0.50;99.90;;;;;;5087763;28;20176;-83
2024/01/20 09:29:31;;;;;;;25.57;16.47;;;-0.60;99.90;;;;;;5088503;28;20291;-82
2024/01/20 09:31:57;;;;;;;26.33;16.00;;;-0.60;99.90;;;;;;5088569;28;20207;-82
2024/01/20 09:34:22;;;;;;;26.37;15.80;;;-0.60;99.90;;;;;;5090595;28;20578;-82
2024/01/20 09:36:50;;;;;;;26.33;14.83;;;-0.80;99.90;;;;;;5073261;28;20179;-83
2024/01/20 09:39:15;;;;;;;25.87;15.60;;;-0.90;99.90;;;;;;5088146;28;20175;-86
2024/01/20 09:41:42;;;;;;;26.53;15.03;;;-0.80;99.90;;;;;;5090011;28;20548;-87
2024/01/20 09:44:12;;;;;;;26.83;16.20;;;-0.80;99.90;;;;;;5090100;28;20188;-85
2024/01/20 09:46:39;;;;;;;25.73;16.07;;;-0.70;99.90;;;;;;5089981;28;20211;-84
2024/01/20 09:49:04;;;;;;;24.43;15.63;;;-0.70;99.90;;;;;;5089942;28;20550;-86
2024/01/20 09:51:31;;;;;;;20.20;14.17;;;-0.70;99.90;;;;;;5088797;28;20294;-84
2024/01/20 09:54:00;;;;;;;21.00;15.83;;;-0.70;99.90;;;;;;5088196;28;20171;-83
2024/01/20 09:56:27;;;;;;;18.87;14.17;;;-0.80;99.90;;;;;;5088166;28;20274;-82
2024/01/20 09:58:58;;;;;;;19.67;15.27;;;-0.80;99.90;;;;;;5091639;28;20175;-85
2024/01/20 10:01:26;;;;;;;20.70;14.80;;;-0.80;99.90;;;;;;5088849;28;20184;-83
2024/01/20 10:03:52;;;;;;;22.10;14.60;;;-0.70;99.90;;;;;;5088012;28;20179;-86
2024/01/20 10:06:17;;;;;;;21.63;15.03;;;-0.50;99.90;;;;;;5086939;28;20229;-85
2024/01/20 10:08:43;;;;;;;20.57;14.77;;;-0.40;99.90;;;;;;5088082;28;20286;-83
2024/01/20 10:11:09;;;;;;;17.73;13.07;;;-0.20;99.90;;;;;;5092145;28;20187;-81
2024/01/20 10:13:34;;;;;;;21.07;15.17;;;-0.10;99.90;;;;;;5088653;28;20193;-82
2024/01/20 10:16:00;;;;;;;20.53;14.37;;;0.00;99.90;;;;;;5088012;28;20241;-84
2024/01/20 10:18:26;;;;;;;22.23;14.63;;;0.10;99.90;;;;;;5088462;28;20671;-83
2024/01/20 10:21:05;;;;;;;18.50;13.30;;;0.10;99.90;;;;;;5087441;28;20171;-82
2024/01/20 10:23:35;;;;;;;19.50;13.77;;;0.30;99.90;;;;;;5086348;28;20283;-84
2024/01/20 10:26:03;;;;;;;19.93;14.23;;;0.20;99.90;;;;;;5087825;28;20793;-83
2024/01/20 10:28:29;;;;;;;19.20;13.53;;;0.20;99.10;;;;;;5087382;28;20179;-85
2024/01/20 10:30:54;;;;;;;17.47;13.70;;;0.30;96.80;;;;;;5087375;28;20203;-84
2024/01/20 10:33:20;;;;;;;19.83;13.77;;;0.40;95.70;;;;;;5084296;28;20217;-84
2024/01/20 10:35:46;;;;;;;21.03;14.13;;;0.50;92.00;;;;;;5085843;28;20689;-83
2024/01/20 10:38:23;;;;;;;19.03;14.17;;;0.50;90.00;;;;;;5087438;28;20188;-82
2024/01/20 10:40:57;;;;;;;17.20;12.77;;;0.60;89.70;;;;;;5086778;28;20726;-82
2024/01/20 10:43:26;;;;;;;18.60;11.47;;;0.60;87.10;;;;;;5086415;28;20184;-83
2024/01/20 10:46:08;;;;;;;18.57;11.83;;;0.50;80.00;;;;;;5086509;28;20218;-84
2024/01/20 10:48:41;;;;;;;17.67;12.13;;;0.50;78.10;;;;;;5087252;28;20171;-87
2024/01/20 10:51:14;;;;;;;17.40;11.47;;;0.60;78.60;;;;;;5086737;28;20167;-85
2024/01/20 10:53:41;;;;;;;16.50;11.47;;;0.40;75.50;;;;;;5084937;28;20682;-85
2024/01/20 10:56:08;;;;;;;16.77;12.20;;;0.50;73.20;;;;;;5087788;28;20300;-86
2024/01/20 10:58:39;;;;;;;18.10;12.77;;;0.60;75.60;;;;;;5088180;28;20213;-84
2024/01/20 11:01:06;;;;;;;16.60;11.77;;;0.90;76.90;;;;;;5084711;28;20187;-83
2024/01/20 11:03:32;;;;;;;20.47;15.40;;;1.10;72.60;;;;;;5085062;28;20202;-86
2024/01/20 11:05:58;;;;;;;19.00;12.73;;;1.20;63.90;;;;;;5087259;28;20248;-87
2024/01/20 11:08:25;;;;;;;19.27;12.77;;;1.30;61.10;;;;;;5086943;28;20191;-84
2024/01/20 11:10:54;;;;;;;17.23;13.97;;;1.40;56.00;;;;;;5089567;28;20206;-83
2024/01/20 11:13:24;;;;;;;17.83;13.10;;;1.40;55.70;;;;;;5093816;28;20608;-85
2024/01/20 11:15:51;;;;;;;21.33;13.97;;;1.50;54.90;;;;;;5090656;28;20228;-85
2024/01/20 11:18:18;;;;;;;23.27;15.20;;;1.50;54.00;;;;;;5094584;28;20215;-84
2024/01/20 11:21:03;;;;;;;22.37;14.53;;;1.60;55.50;;;;;;5092023;28;20209;-86
2024/01/20 11:23:29;;;;;;;20.80;14.47;;;1.70;52.60;;;;;;5092919;28;20186;-83
2024/01/20 11:25:56;;;;;;;18.77;14.17;;;1.70;51.40;;;;;;5095908;28;20195;-84
2024/01/20 11:28:31;;;;;;;19.27;13.60;;;1.80;53.20;;;;;;5092350;28;20171;-84
2024/01/20 11:30:58;;;;;;;21.70;14.60;;;1.80;49.30;;;;;;5081070;28;20175;-84
2024/01/20 11:33:24;;;;;;;22.87;13.77;;;1.80;48.00;;;;;;5085286;28;20170;-84
2024/01/20 11:35:53;;;;;;;18.77;13.93;;;1.80;47.80;;;;;;5083961;28;20544;-83
2024/01/20 11:38:19;;;;;;;19.00;14.30;;;1.70;44.40;;;;;;5085626;28;20683;-83
2024/01/20 11:40:59;;;;;;;21.20;13.93;;;1.70;99.90;;;;;;5086155;28;20263;-82
2024/01/20 11:43:25;;;;;;;19.07;13.10;;;1.50;99.90;;;;;;5095002;28;20164;-83
2024/01/20 11:45:50;;;;;;;20.60;13.67;;;1.60;99.90;;;;;;5094200;28;20219;-83
2024/01/20 11:48:18;;;;;;;17.77;13.27;;;1.90;99.90;;;;;;5094360;28;20171;-84
2024/01/20 11:50:43;;;;;;;20.90;14.43;;;1.70;99.90;;;;;;5090114;28;20632;-84
2024/01/20 11:53:09;;;;;;;17.87;13.03;;;1.80;99.90;;;;;;5080304;28;20225;-83
2024/01/20 11:55:35;;;;;;;17.60;12.77;;;2.00;99.90;;;;;;5073934;28;20172;-84
2024/01/20 11:58:01;;;;;;;18.70;12.93;;;2.00;99.90;;;;;;5073307;28;20196;-83
2024/01/20 12:00:27;;;;;;;16.77;12.27;;;2.10;99.90;;;;;;5073371;28;20172;-82
2024/01/20 12:02:52;;;;;;;17.20;12.30;;;2.00;99.90;;;;;;5073707;28;20202;-82
2024/01/20 12:05:19;;;;;;;18.03;13.30;;;2.00;99.90;;;;;;5073681;28;20200;-82
2024/01/20 12:07:45;;;;;;;18.50;11.73;;;2.00;99.90;;;;;;5072765;28;20188;-83
2024/01/20 12:10:11;;;;;;;21.30;12.40;;;2.10;99.90;;;;;;5073314;28;20271;-81
2024/01/20 12:12:38;;;;;;;18.93;12.17;;;2.00;99.90;;;;;;5072712;28;20696;-81
2024/01/20 12:15:06;;;;;;;17.10;11.57;;;2.00;99.90;;;;;;5078691;28;20582;-82
2024/01/20 12:17:32;;;;;;;17.50;11.90;;;2.20;99.90;;;;;;5073393;28;20291;-83
2024/01/20 12:19:58;;;;;;;16.93;11.50;;;2.20;99.90;;;;;;5072986;28;20219;-82
2024/01/20 12:22:24;;;;;;;15.70;11.77;;;2.10;99.90;;;;;;5080678;28;20183;-81
2024/01/20 12:24:50;;;;;;;17.23;11.97;;;2.10;99.90;;;;;;5071655;28;20172;-84
2024/01/20 12:27:16;;;;;;;18.30;12.43;;;2.20;99.90;;;;;;5071732;28;20532;-82
2024/01/20 12:29:42;;;;;;;19.13;11.83;;;2.20;99.90;;;;;;5072759;28;20605;-83